sensor_id;sensor_type;location;lat;lon;timestamp;P1;durP1;ratioP1;P2;durP2;ratioP2
795;SDS011;381;48.770;9.188;2023-08-12T00:04:56;6.50;;;5.93;;
795;SDS011;381;48.770;9.188;2023-08-12T00:09:58;5.57;;;5.17;;
795;SDS011;381;48.770;9.188;2023-08-12T00:15:01;8.03;;;6.13;;
795;SDS011;381;48.770;9.188;2023-08-12T00:20:06;5.60;;;5.20;;
795;SDS011;381;48.770;9.188;2023-08-12T00:25:11;6.43;;;5.83;;
795;SDS011;381;48.770;9.188;2023-08-12T00:30:13;5.90;;;5.50;;
795;SDS011;381;48.770;9.188;2023-08-12T00:35:17;5.77;;;5.27;;
795;SDS011;381;48.770;9.188;2023-08-12T00:40:19;6.00;;;5.60;;
795;SDS011;381;48.770;9.188;2023-08-12T00:45:21;5.80;;;5.40;;
795;SDS011;381;48.770;9.188;2023-08-12T00:50:25;6.20;;;5.60;;
795;SDS011;381;48.770;9.188;2023-08-12T00:55:27;5.60;;;5.20;;
795;SDS011;381;48.770;9.188;2023-08-12T01:00:33;6.60;;;5.90;;
795;SDS011;381;48.770;9.188;2023-08-12T01:05:37;6.13;;;5.73;;
795;SDS011;381;48.770;9.188;2023-08-12T01:10:39;6.30;;;5.70;;
795;SDS011;381;48.770;9.188;2023-08-12T01:15:47;5.77;;;5.37;;
795;SDS011;381;48.770;9.188;2023-08-12T01:20:55;5.60;;;5.30;;
795;SDS011;381;48.770;9.188;2023-08-12T01:25:59;8.47;;;7.80;;
795;SDS011;381;48.770;9.188;2023-08-12T01:31:02;5.10;;;4.80;;
795;SDS011;381;48.770;9.188;2023-08-12T01:36:12;6.20;;;5.70;;
795;SDS011;381;48.770;9.188;2023-08-12T01:41:21;6.33;;;5.93;;
795;SDS011;381;48.770;9.188;2023-08-12T01:46:25;6.57;;;6.07;;
795;SDS011;381;48.770;9.188;2023-08-12T01:51:28;5.30;;;4.90;;
795;SDS011;381;48.770;9.188;2023-08-12T01:56:32;5.37;;;5.07;;
795;SDS011;381;48.770;9.188;2023-08-12T02:01:34;6.13;;;5.73;;
795;SDS011;381;48.770;9.188;2023-08-12T02:06:36;5.77;;;5.37;;
795;SDS011;381;48.770;9.188;2023-08-12T02:11:40;6.23;;;5.73;;
795;SDS011;381;48.770;9.188;2023-08-12T02:16:42;6.17;;;5.57;;
795;SDS011;381;48.770;9.188;2023-08-12T02:21:44;6.70;;;6.20;;
795;SDS011;381;48.770;9.188;2023-08-12T02:26:47;6.20;;;5.77;;
795;SDS011;381;48.770;9.188;2023-08-12T02:31:49;7.23;;;6.53;;
795;SDS011;381;48.770;9.188;2023-08-12T02:36:54;6.50;;;6.10;;
795;SDS011;381;48.770;9.188;2023-08-12T02:41:57;6.13;;;5.73;;
795;SDS011;381;48.770;9.188;2023-08-12T02:46:59;9.60;;;6.37;;
795;SDS011;381;48.770;9.188;2023-08-12T02:52:01;6.90;;;6.40;;
795;SDS011;381;48.770;9.188;2023-08-12T02:57:05;6.63;;;6.03;;
795;SDS011;381;48.770;9.188;2023-08-12T03:02:07;7.00;;;6.40;;
795;SDS011;381;48.770;9.188;2023-08-12T03:07:10;6.83;;;6.33;;
795;SDS011;381;48.770;9.188;2023-08-12T03:12:14;6.83;;;6.33;;
795;SDS011;381;48.770;9.188;2023-08-12T03:17:16;6.20;;;5.80;;
795;SDS011;381;48.770;9.188;2023-08-12T03:22:18;6.00;;;5.57;;
795;SDS011;381;48.770;9.188;2023-08-12T03:27:23;5.50;;;5.10;;
795;SDS011;381;48.770;9.188;2023-08-12T03:32:25;7.10;;;6.13;;
795;SDS011;381;48.770;9.188;2023-08-12T03:37:29;6.27;;;5.77;;
795;SDS011;381;48.770;9.188;2023-08-12T03:42:32;6.23;;;5.80;;
795;SDS011;381;48.770;9.188;2023-08-12T03:47:37;6.27;;;5.87;;
795;SDS011;381;48.770;9.188;2023-08-12T03:52:40;6.40;;;5.90;;
795;SDS011;381;48.770;9.188;2023-08-12T03:57:43;6.43;;;5.80;;
795;SDS011;381;48.770;9.188;2023-08-12T04:02:46;6.00;;;5.60;;
795;SDS011;381;48.770;9.188;2023-08-12T04:07:48;8.00;;;5.90;;
795;SDS011;381;48.770;9.188;2023-08-12T04:12:51;6.73;;;6.13;;
795;SDS011;381;48.770;9.188;2023-08-12T04:17:53;6.93;;;6.37;;
795;SDS011;381;48.770;9.188;2023-08-12T04:22:56;6.43;;;6.03;;
795;SDS011;381;48.770;9.188;2023-08-12T04:28:00;5.53;;;5.13;;
795;SDS011;381;48.770;9.188;2023-08-12T04:33:03;6.50;;;5.93;;
795;SDS011;381;48.770;9.188;2023-08-12T04:38:06;6.67;;;6.17;;
795;SDS011;381;48.770;9.188;2023-08-12T04:43:11;5.60;;;5.30;;
795;SDS011;381;48.770;9.188;2023-08-12T04:48:14;7.50;;;6.80;;
795;SDS011;381;48.770;9.188;2023-08-12T04:53:16;7.10;;;6.53;;
795;SDS011;381;48.770;9.188;2023-08-12T04:58:20;5.90;;;5.50;;
795;SDS011;381;48.770;9.188;2023-08-12T05:03:23;7.07;;;6.40;;
795;SDS011;381;48.770;9.188;2023-08-12T05:08:27;6.60;;;6.10;;
795;SDS011;381;48.770;9.188;2023-08-12T05:13:31;6.97;;;6.47;;
795;SDS011;381;48.770;9.188;2023-08-12T05:18:34;6.53;;;6.03;;
795;SDS011;381;48.770;9.188;2023-08-12T05:23:37;6.33;;;5.87;;
795;SDS011;381;48.770;9.188;2023-08-12T05:28:40;6.23;;;5.83;;
795;SDS011;381;48.770;9.188;2023-08-12T05:33:42;6.07;;;5.57;;
795;SDS011;381;48.770;9.188;2023-08-12T05:38:44;5.63;;;5.10;;
795;SDS011;381;48.770;9.188;2023-08-12T05:43:48;6.67;;;6.00;;
795;SDS011;381;48.770;9.188;2023-08-12T05:48:50;6.93;;;6.30;;
795;SDS011;381;48.770;9.188;2023-08-12T05:53:52;5.90;;;5.40;;
795;SDS011;381;48.770;9.188;2023-08-12T05:58:56;6.23;;;5.73;;
795;SDS011;381;48.770;9.188;2023-08-12T06:03:58;7.27;;;6.57;;
795;SDS011;381;48.770;9.188;2023-08-12T06:09:00;6.20;;;5.63;;
795;SDS011;381;48.770;9.188;2023-08-12T06:14:03;9.37;;;6.33;;
795;SDS011;381;48.770;9.188;2023-08-12T06:19:06;7.37;;;6.67;;
795;SDS011;381;48.770;9.188;2023-08-12T06:24:08;6.90;;;6.30;;
795;SDS011;381;48.770;9.188;2023-08-12T06:29:11;6.53;;;6.03;;
795;SDS011;381;48.770;9.188;2023-08-12T06:34:13;7.30;;;6.70;;
795;SDS011;381;48.770;9.188;2023-08-12T06:39:15;8.00;;;7.30;;
795;SDS011;381;48.770;9.188;2023-08-12T06:44:18;6.23;;;5.83;;
795;SDS011;381;48.770;9.188;2023-08-12T06:49:20;6.37;;;5.97;;
795;SDS011;381;48.770;9.188;2023-08-12T06:54:23;7.57;;;6.97;;
795;SDS011;381;48.770;9.188;2023-08-12T06:59:26;7.60;;;6.97;;
795;SDS011;381;48.770;9.188;2023-08-12T07:04:28;7.33;;;6.73;;
795;SDS011;381;48.770;9.188;2023-08-12T07:09:30;6.37;;;5.97;;
795;SDS011;381;48.770;9.188;2023-08-12T07:14:34;6.77;;;6.27;;
795;SDS011;381;48.770;9.188;2023-08-12T07:19:36;6.30;;;5.80;;
795;SDS011;381;48.770;9.188;2023-08-12T07:24:38;7.43;;;6.70;;
795;SDS011;381;48.770;9.188;2023-08-12T07:29:42;6.40;;;5.90;;
795;SDS011;381;48.770;9.188;2023-08-12T07:34:44;7.00;;;6.30;;
795;SDS011;381;48.770;9.188;2023-08-12T07:39:46;6.47;;;5.87;;
795;SDS011;381;48.770;9.188;2023-08-12T07:44:50;6.67;;;6.10;;
795;SDS011;381;48.770;9.188;2023-08-12T07:49:52;7.97;;;5.73;;
795;SDS011;381;48.770;9.188;2023-08-12T07:54:54;8.23;;;6.80;;
795;SDS011;381;48.770;9.188;2023-08-12T07:59:57;6.80;;;6.20;;
795;SDS011;381;48.770;9.188;2023-08-12T08:04:59;6.40;;;5.90;;
795;SDS011;381;48.770;9.188;2023-08-12T08:10:01;6.90;;;6.20;;
795;SDS011;381;48.770;9.188;2023-08-12T08:15:06;19.93;;;7.40;;
795;SDS011;381;48.770;9.188;2023-08-12T08:20:08;6.37;;;5.87;;
795;SDS011;381;48.770;9.188;2023-08-12T08:25:11;6.20;;;5.67;;
795;SDS011;381;48.770;9.188;2023-08-12T08:30:14;7.10;;;6.57;;
795;SDS011;381;48.770;9.188;2023-08-12T08:35:16;6.37;;;5.80;;
795;SDS011;381;48.770;9.188;2023-08-12T08:40:19;6.70;;;6.10;;
795;SDS011;381;48.770;9.188;2023-08-12T08:45:22;7.10;;;6.60;;
795;SDS011;381;48.770;9.188;2023-08-12T08:50:25;6.80;;;6.30;;
795;SDS011;381;48.770;9.188;2023-08-12T08:55:28;6.13;;;5.73;;
795;SDS011;381;48.770;9.188;2023-08-12T09:00:31;7.13;;;6.10;;
795;SDS011;381;48.770;9.188;2023-08-12T09:05:34;6.57;;;5.80;;
795;SDS011;381;48.770;9.188;2023-08-12T09:10:38;6.97;;;6.27;;
795;SDS011;381;48.770;9.188;2023-08-12T09:15:43;6.30;;;5.77;;
795;SDS011;381;48.770;9.188;2023-08-12T09:20:45;6.80;;;6.20;;
795;SDS011;381;48.770;9.188;2023-08-12T09:25:47;7.37;;;6.13;;
795;SDS011;381;48.770;9.188;2023-08-12T09:30:51;6.30;;;5.90;;
795;SDS011;381;48.770;9.188;2023-08-12T09:35:54;5.13;;;4.73;;
795;SDS011;381;48.770;9.188;2023-08-12T09:40:57;5.93;;;5.50;;
795;SDS011;381;48.770;9.188;2023-08-12T09:46:00;5.77;;;5.37;;
795;SDS011;381;48.770;9.188;2023-08-12T09:51:04;5.17;;;4.60;;
795;SDS011;381;48.770;9.188;2023-08-12T09:56:07;3.97;;;3.77;;
795;SDS011;381;48.770;9.188;2023-08-12T10:01:13;3.80;;;3.60;;
795;SDS011;381;48.770;9.188;2023-08-12T10:06:19;4.20;;;3.90;;
795;SDS011;381;48.770;9.188;2023-08-12T10:11:22;4.30;;;3.90;;
795;SDS011;381;48.770;9.188;2023-08-12T10:16:27;4.77;;;4.30;;
795;SDS011;381;48.770;9.188;2023-08-12T10:21:30;4.77;;;4.37;;
795;SDS011;381;48.770;9.188;2023-08-12T10:26:33;4.20;;;3.83;;
795;SDS011;381;48.770;9.188;2023-08-12T10:31:37;4.70;;;4.30;;
795;SDS011;381;48.770;9.188;2023-08-12T10:36:40;4.30;;;4.00;;
795;SDS011;381;48.770;9.188;2023-08-12T10:41:49;5.33;;;3.60;;
795;SDS011;381;48.770;9.188;2023-08-12T10:46:54;4.57;;;4.20;;
795;SDS011;381;48.770;9.188;2023-08-12T10:51:59;4.40;;;4.00;;
795;SDS011;381;48.770;9.188;2023-08-12T10:57:09;4.13;;;3.83;;
795;SDS011;381;48.770;9.188;2023-08-12T11:02:17;3.97;;;3.70;;
795;SDS011;381;48.770;9.188;2023-08-12T11:07:21;4.70;;;4.00;;
795;SDS011;381;48.770;9.188;2023-08-12T11:12:29;4.73;;;4.30;;
795;SDS011;381;48.770;9.188;2023-08-12T11:17:34;6.50;;;3.33;;
795;SDS011;381;48.770;9.188;2023-08-12T11:22:37;3.87;;;3.60;;
795;SDS011;381;48.770;9.188;2023-08-12T11:27:41;4.87;;;3.83;;
795;SDS011;381;48.770;9.188;2023-08-12T11:32:47;3.97;;;3.67;;
795;SDS011;381;48.770;9.188;2023-08-12T11:37:50;4.33;;;3.93;;
795;SDS011;381;48.770;9.188;2023-08-12T11:42:54;6.33;;;5.70;;
795;SDS011;381;48.770;9.188;2023-08-12T11:47:57;4.67;;;4.27;;
795;SDS011;381;48.770;9.188;2023-08-12T11:52:59;4.50;;;4.17;;
795;SDS011;381;48.770;9.188;2023-08-12T11:58:02;4.30;;;3.93;;
795;SDS011;381;48.770;9.188;2023-08-12T12:03:06;6.63;;;4.43;;
795;SDS011;381;48.770;9.188;2023-08-12T12:08:08;5.37;;;4.83;;
795;SDS011;381;48.770;9.188;2023-08-12T12:13:10;7.00;;;4.93;;
795;SDS011;381;48.770;9.188;2023-08-12T12:18:16;6.10;;;5.50;;
795;SDS011;381;48.770;9.188;2023-08-12T12:23:18;5.93;;;5.53;;
795;SDS011;381;48.770;9.188;2023-08-12T12:28:20;8.17;;;6.83;;
795;SDS011;381;48.770;9.188;2023-08-12T12:33:24;7.77;;;7.27;;
795;SDS011;381;48.770;9.188;2023-08-12T12:38:26;9.80;;;9.10;;
795;SDS011;381;48.770;9.188;2023-08-12T12:43:28;7.87;;;7.37;;
795;SDS011;381;48.770;9.188;2023-08-12T12:48:31;11.10;;;10.23;;
795;SDS011;381;48.770;9.188;2023-08-12T12:53:34;9.73;;;9.00;;
795;SDS011;381;48.770;9.188;2023-08-12T12:58:36;10.30;;;9.60;;
795;SDS011;381;48.770;9.188;2023-08-12T13:03:40;11.17;;;10.23;;
795;SDS011;381;48.770;9.188;2023-08-12T13:08:42;12.73;;;11.77;;
795;SDS011;381;48.770;9.188;2023-08-12T13:13:44;12.80;;;11.80;;
795;SDS011;381;48.770;9.188;2023-08-12T13:18:48;12.87;;;11.97;;
795;SDS011;381;48.770;9.188;2023-08-12T13:23:50;12.60;;;11.80;;
795;SDS011;381;48.770;9.188;2023-08-12T13:28:53;15.27;;;14.10;;
795;SDS011;381;48.770;9.188;2023-08-12T13:33:56;13.13;;;12.30;;
795;SDS011;381;48.770;9.188;2023-08-12T13:38:58;14.20;;;13.00;;
795;SDS011;381;48.770;9.188;2023-08-12T13:44:00;15.97;;;14.77;;
795;SDS011;381;48.770;9.188;2023-08-12T13:49:05;14.10;;;13.00;;
795;SDS011;381;48.770;9.188;2023-08-12T13:54:07;13.03;;;12.00;;
795;SDS011;381;48.770;9.188;2023-08-12T13:59:09;9.60;;;8.80;;
795;SDS011;381;48.770;9.188;2023-08-12T14:04:12;9.37;;;8.77;;
795;SDS011;381;48.770;9.188;2023-08-12T14:09:14;9.27;;;8.57;;
795;SDS011;381;48.770;9.188;2023-08-12T14:14:18;6.37;;;5.87;;
795;SDS011;381;48.770;9.188;2023-08-12T14:19:22;6.10;;;5.67;;
795;SDS011;381;48.770;9.188;2023-08-12T14:24:24;7.20;;;5.70;;
795;SDS011;381;48.770;9.188;2023-08-12T14:29:26;6.40;;;5.90;;
795;SDS011;381;48.770;9.188;2023-08-12T14:34:30;5.00;;;4.67;;
795;SDS011;381;48.770;9.188;2023-08-12T14:39:34;7.03;;;6.50;;
795;SDS011;381;48.770;9.188;2023-08-12T14:44:36;5.53;;;5.13;;
795;SDS011;381;48.770;9.188;2023-08-12T14:49:40;5.63;;;5.13;;
795;SDS011;381;48.770;9.188;2023-08-12T14:54:42;5.97;;;5.27;;
795;SDS011;381;48.770;9.188;2023-08-12T14:59:44;4.50;;;4.20;;
795;SDS011;381;48.770;9.188;2023-08-12T15:04:52;4.00;;;3.70;;
795;SDS011;381;48.770;9.188;2023-08-12T15:09:55;5.40;;;4.10;;
795;SDS011;381;48.770;9.188;2023-08-12T15:14:58;4.17;;;3.77;;
795;SDS011;381;48.770;9.188;2023-08-12T15:20:02;3.40;;;3.20;;
795;SDS011;381;48.770;9.188;2023-08-12T15:25:06;3.40;;;3.20;;
795;SDS011;381;48.770;9.188;2023-08-12T15:30:09;3.67;;;3.37;;
795;SDS011;381;48.770;9.188;2023-08-12T15:35:13;4.03;;;3.73;;
795;SDS011;381;48.770;9.188;2023-08-12T15:40:15;3.67;;;3.40;;
795;SDS011;381;48.770;9.188;2023-08-12T15:45:18;3.70;;;3.40;;
795;SDS011;381;48.770;9.188;2023-08-12T15:50:21;3.40;;;3.10;;
795;SDS011;381;48.770;9.188;2023-08-12T15:55:24;3.67;;;3.47;;
795;SDS011;381;48.770;9.188;2023-08-12T16:00:26;3.83;;;3.23;;
795;SDS011;381;48.770;9.188;2023-08-12T16:05:29;3.67;;;3.30;;
795;SDS011;381;48.770;9.188;2023-08-12T16:10:35;3.17;;;2.97;;
795;SDS011;381;48.770;9.188;2023-08-12T16:15:37;6.27;;;4.23;;
795;SDS011;381;48.770;9.188;2023-08-12T16:20:40;11.87;;;7.40;;
795;SDS011;381;48.770;9.188;2023-08-12T16:25:42;9.77;;;9.13;;
795;SDS011;381;48.770;9.188;2023-08-12T16:30:45;8.90;;;8.30;;
795;SDS011;381;48.770;9.188;2023-08-12T16:35:48;13.07;;;12.17;;
795;SDS011;381;48.770;9.188;2023-08-12T16:40:51;14.37;;;13.37;;
795;SDS011;381;48.770;9.188;2023-08-12T16:45:53;17.20;;;15.60;;
795;SDS011;381;48.770;9.188;2023-08-12T16:50:56;16.00;;;14.90;;
795;SDS011;381;48.770;9.188;2023-08-12T16:55:58;16.13;;;15.13;;
795;SDS011;381;48.770;9.188;2023-08-12T17:01:00;14.40;;;13.53;;
795;SDS011;381;48.770;9.188;2023-08-12T17:06:04;11.33;;;10.53;;
795;SDS011;381;48.770;9.188;2023-08-12T17:11:06;18.17;;;16.87;;
795;SDS011;381;48.770;9.188;2023-08-12T17:16:08;12.53;;;11.80;;
795;SDS011;381;48.770;9.188;2023-08-12T17:21:12;11.73;;;11.13;;
795;SDS011;381;48.770;9.188;2023-08-12T17:26:14;11.90;;;10.90;;
795;SDS011;381;48.770;9.188;2023-08-12T17:31:16;10.10;;;9.50;;
795;SDS011;381;48.770;9.188;2023-08-12T17:36:20;6.27;;;5.87;;
795;SDS011;381;48.770;9.188;2023-08-12T17:41:22;8.67;;;8.27;;
795;SDS011;381;48.770;9.188;2023-08-12T17:46:24;7.10;;;6.80;;
795;SDS011;381;48.770;9.188;2023-08-12T17:51:28;8.10;;;7.70;;
795;SDS011;381;48.770;9.188;2023-08-12T17:56:30;7.70;;;7.30;;
795;SDS011;381;48.770;9.188;2023-08-12T18:01:32;7.83;;;7.43;;
795;SDS011;381;48.770;9.188;2023-08-12T18:06:36;7.77;;;7.37;;
795;SDS011;381;48.770;9.188;2023-08-12T18:11:38;8.87;;;8.37;;
795;SDS011;381;48.770;9.188;2023-08-12T18:16:41;9.50;;;8.90;;
795;SDS011;381;48.770;9.188;2023-08-12T18:21:44;9.73;;;9.03;;
795;SDS011;381;48.770;9.188;2023-08-12T18:26:46;8.10;;;7.53;;
795;SDS011;381;48.770;9.188;2023-08-12T18:31:48;15.33;;;13.00;;
795;SDS011;381;48.770;9.188;2023-08-12T18:36:52;10.63;;;10.03;;
795;SDS011;381;48.770;9.188;2023-08-12T18:41:54;9.07;;;8.37;;
795;SDS011;381;48.770;9.188;2023-08-12T18:46:57;8.67;;;8.17;;
795;SDS011;381;48.770;9.188;2023-08-12T18:52:01;8.70;;;8.23;;
795;SDS011;381;48.770;9.188;2023-08-12T18:57:04;9.07;;;8.33;;
795;SDS011;381;48.770;9.188;2023-08-12T19:02:06;5.93;;;5.60;;
795;SDS011;381;48.770;9.188;2023-08-12T19:07:11;8.23;;;7.73;;
795;SDS011;381;48.770;9.188;2023-08-12T19:12:13;6.87;;;6.37;;
795;SDS011;381;48.770;9.188;2023-08-12T19:17:15;9.60;;;8.90;;
795;SDS011;381;48.770;9.188;2023-08-12T19:22:19;9.10;;;8.57;;
795;SDS011;381;48.770;9.188;2023-08-12T19:27:21;8.90;;;8.30;;
795;SDS011;381;48.770;9.188;2023-08-12T19:32:24;9.73;;;9.07;;
795;SDS011;381;48.770;9.188;2023-08-12T19:37:27;8.60;;;7.90;;
795;SDS011;381;48.770;9.188;2023-08-12T19:42:29;8.17;;;7.77;;
795;SDS011;381;48.770;9.188;2023-08-12T19:47:35;9.40;;;8.80;;
795;SDS011;381;48.770;9.188;2023-08-12T19:52:41;9.77;;;9.07;;
795;SDS011;381;48.770;9.188;2023-08-12T19:57:44;9.97;;;9.37;;
795;SDS011;381;48.770;9.188;2023-08-12T20:02:46;10.90;;;10.30;;
795;SDS011;381;48.770;9.188;2023-08-12T20:07:50;10.77;;;10.17;;
795;SDS011;381;48.770;9.188;2023-08-12T20:12:53;11.63;;;10.97;;
795;SDS011;381;48.770;9.188;2023-08-12T20:17:55;12.47;;;11.73;;
795;SDS011;381;48.770;9.188;2023-08-12T20:22:58;12.37;;;11.57;;
795;SDS011;381;48.770;9.188;2023-08-12T20:28:00;12.37;;;11.47;;
795;SDS011;381;48.770;9.188;2023-08-12T20:33:03;13.10;;;12.20;;
795;SDS011;381;48.770;9.188;2023-08-12T20:38:08;12.80;;;11.80;;
795;SDS011;381;48.770;9.188;2023-08-12T20:43:10;13.80;;;12.60;;
795;SDS011;381;48.770;9.188;2023-08-12T20:48:12;13.57;;;12.57;;
795;SDS011;381;48.770;9.188;2023-08-12T20:53:17;13.17;;;12.27;;
795;SDS011;381;48.770;9.188;2023-08-12T20:58:19;14.10;;;13.20;;
795;SDS011;381;48.770;9.188;2023-08-12T21:03:21;14.73;;;13.63;;
795;SDS011;381;48.770;9.188;2023-08-12T21:08:25;13.83;;;12.57;;
795;SDS011;381;48.770;9.188;2023-08-12T21:13:27;13.97;;;13.07;;
795;SDS011;381;48.770;9.188;2023-08-12T21:18:29;14.27;;;13.37;;
795;SDS011;381;48.770;9.188;2023-08-12T21:23:33;14.40;;;13.23;;
795;SDS011;381;48.770;9.188;2023-08-12T21:28:35;14.23;;;13.27;;
795;SDS011;381;48.770;9.188;2023-08-12T21:33:37;14.47;;;13.27;;
795;SDS011;381;48.770;9.188;2023-08-12T21:38:40;13.53;;;12.60;;
795;SDS011;381;48.770;9.188;2023-08-12T21:43:42;11.93;;;11.03;;
795;SDS011;381;48.770;9.188;2023-08-12T21:48:44;13.00;;;12.17;;
795;SDS011;381;48.770;9.188;2023-08-12T21:53:48;14.07;;;13.17;;
795;SDS011;381;48.770;9.188;2023-08-12T21:58:50;13.07;;;12.17;;
795;SDS011;381;48.770;9.188;2023-08-12T22:03:53;12.97;;;12.00;;
795;SDS011;381;48.770;9.188;2023-08-12T22:08:57;11.90;;;11.10;;
795;SDS011;381;48.770;9.188;2023-08-12T22:13:59;13.10;;;12.20;;
795;SDS011;381;48.770;9.188;2023-08-12T22:19:01;13.87;;;12.87;;
795;SDS011;381;48.770;9.188;2023-08-12T22:24:05;12.80;;;12.00;;
795;SDS011;381;48.770;9.188;2023-08-12T22:29:08;13.03;;;12.13;;
795;SDS011;381;48.770;9.188;2023-08-12T22:34:10;10.70;;;9.80;;
795;SDS011;381;48.770;9.188;2023-08-12T22:39:13;12.70;;;11.80;;
795;SDS011;381;48.770;9.188;2023-08-12T22:44:15;13.00;;;12.10;;
795;SDS011;381;48.770;9.188;2023-08-12T22:49:17;12.47;;;11.67;;
795;SDS011;381;48.770;9.188;2023-08-12T22:54:21;13.10;;;12.17;;
795;SDS011;381;48.770;9.188;2023-08-12T22:59:23;12.20;;;11.30;;
795;SDS011;381;48.770;9.188;2023-08-12T23:04:25;13.10;;;12.00;;
795;SDS011;381;48.770;9.188;2023-08-12T23:09:29;13.07;;;11.93;;
795;SDS011;381;48.770;9.188;2023-08-12T23:14:31;12.93;;;12.03;;
795;SDS011;381;48.770;9.188;2023-08-12T23:19:33;13.07;;;11.90;;
795;SDS011;381;48.770;9.188;2023-08-12T23:24:36;11.87;;;11.07;;
795;SDS011;381;48.770;9.188;2023-08-12T23:29:39;12.60;;;11.80;;
795;SDS011;381;48.770;9.188;2023-08-12T23:34:41;12.37;;;11.37;;
795;SDS011;381;48.770;9.188;2023-08-12T23:39:45;11.97;;;11.07;;
795;SDS011;381;48.770;9.188;2023-08-12T23:44:47;11.90;;;11.00;;
795;SDS011;381;48.770;9.188;2023-08-12T23:49:49;12.43;;;11.40;;
795;SDS011;381;48.770;9.188;2023-08-12T23:54:54;12.97;;;11.67;;
795;SDS011;381;48.770;9.188;2023-08-12T23:59:56;12.00;;;11.10;;
